createdAt,value
2022-11-06T00:01:37.138Z,2.08
2022-11-06T00:04:04.876Z,2.20
2022-11-06T00:06:49.050Z,2.25
2022-11-06T00:09:19.410Z,2.53
2022-11-06T00:11:50.859Z,2.10
2022-11-06T00:14:18.533Z,1.85
2022-11-06T00:16:47.546Z,1.67
2022-11-06T00:19:16.105Z,2.50
2022-11-06T00:21:43.947Z,2.50
2022-11-06T00:24:13.944Z,1.95
2022-11-06T00:26:42.210Z,2.83
2022-11-06T00:29:14.259Z,2.40
2022-11-06T00:31:42.268Z,1.98
2022-11-06T00:34:10.674Z,2.45
2022-11-06T00:36:38.813Z,1.90
2022-11-06T00:39:06.564Z,1.80
2022-11-06T00:41:33.978Z,1.90
2022-11-06T00:44:02.789Z,2.33
2022-11-06T00:46:30.744Z,1.60
2022-11-06T00:48:58.676Z,1.30
2022-11-06T00:51:29.665Z,2.20
2022-11-06T00:54:00.187Z,1.85
2022-11-06T00:56:29.057Z,1.67
2022-11-06T00:58:59.786Z,1.58
2022-11-06T01:01:32.752Z,1.60
2022-11-06T01:04:10.926Z,1.77
2022-11-06T01:06:40.919Z,1.80
2022-11-06T01:09:09.324Z,2.13
2022-11-06T01:12:07.015Z,2.00
2022-11-06T01:14:28.234Z,1.52
2022-11-06T01:16:56.110Z,1.70
2022-11-06T01:19:23.785Z,1.98
2022-11-06T01:21:53.035Z,1.60
2022-11-06T01:24:23.739Z,1.48
2022-11-06T01:27:24.924Z,1.77
2022-11-06T01:29:39.564Z,2.03
2022-11-06T01:32:07.142Z,1.65
2022-11-06T01:34:34.792Z,1.65
2022-11-06T01:37:02.443Z,1.55
2022-11-06T01:39:30.797Z,1.67
2022-11-06T01:41:58.449Z,1.73
2022-11-06T01:44:43.941Z,1.80
2022-11-06T01:47:37.841Z,1.30
2022-11-06T01:50:08.484Z,1.30
2022-11-06T01:52:36.598Z,1.25
2022-11-06T01:55:14.660Z,1.60
2022-11-06T01:57:42.830Z,1.70
2022-11-06T02:00:10.945Z,1.00
2022-11-06T02:02:39.966Z,1.20
2022-11-06T02:05:08.132Z,1.05
2022-11-06T02:07:36.732Z,1.00
2022-11-06T02:10:04.952Z,1.20
2022-11-06T02:12:53.500Z,1.27
2022-11-06T02:15:30.266Z,1.00
2022-11-06T02:18:16.609Z,1.17
2022-11-06T02:21:04.253Z,0.85
2022-11-06T02:24:09.036Z,1.20
2022-11-06T02:26:56.524Z,1.67
2022-11-06T02:29:45.429Z,1.52
2022-11-06T02:32:33.065Z,1.50
2022-11-06T02:35:05.799Z,2.10
2022-11-06T02:37:37.265Z,1.75
2022-11-06T02:40:07.795Z,1.90
2022-11-06T02:42:40.360Z,1.60
2022-11-06T02:45:10.993Z,2.25
2022-11-06T02:47:39.860Z,1.75
2022-11-06T02:50:18.858Z,1.48
2022-11-06T02:53:00.042Z,1.15
2022-11-06T02:55:49.426Z,2.28
2022-11-06T02:58:21.522Z,1.92
2022-11-06T03:01:22.890Z,1.60
2022-11-06T03:03:56.133Z,1.40
2022-11-06T03:06:32.867Z,2.00
2022-11-06T03:09:08.940Z,1.50
2022-11-06T03:11:39.171Z,1.63
2022-11-06T03:14:32.053Z,1.63
2022-11-06T03:17:08.743Z,1.80
2022-11-06T03:20:08.709Z,1.92
2022-11-06T03:22:36.089Z,1.73
2022-11-06T03:25:54.447Z,2.67
2022-11-06T03:28:33.879Z,2.05
2022-11-06T03:31:05.912Z,2.25
2022-11-06T03:33:42.726Z,2.00
2022-11-06T03:36:18.800Z,3.33
2022-11-06T03:39:02.285Z,2.00
2022-11-06T03:41:39.632Z,1.52
2022-11-06T03:44:11.283Z,2.05
2022-11-06T03:46:44.045Z,2.05
2022-11-06T03:49:17.196Z,1.58
2022-11-06T03:51:56.307Z,1.77
2022-11-06T03:54:44.221Z,1.58
2022-11-06T03:57:15.795Z,1.52
2022-11-06T03:59:51.557Z,1.50
2022-11-06T04:02:22.474Z,1.42
2022-11-06T04:07:41.475Z,1.38
2022-11-06T04:10:29.976Z,1.00
2022-11-06T04:13:18.384Z,0.88
2022-11-06T04:15:52.801Z,0.73
2022-11-06T04:18:20.500Z,0.98
2022-11-06T04:21:22.166Z,0.70
2022-11-06T04:24:24.195Z,0.60
2022-11-06T04:27:21.411Z,0.88
2022-11-06T04:30:11.876Z,0.80
2022-11-06T04:33:13.163Z,0.73
2022-11-06T04:36:11.277Z,0.85
2022-11-06T04:39:04.924Z,0.60
2022-11-06T04:41:35.158Z,0.60
2022-11-06T04:44:09.074Z,0.50
2022-11-06T04:46:53.181Z,0.60
2022-11-06T04:49:22.000Z,0.70
2022-11-06T04:51:50.000Z,1.60
2022-11-06T04:54:18.112Z,0.82
2022-11-06T04:56:46.557Z,1.23
2022-11-06T04:59:16.852Z,0.90
2022-11-06T05:01:46.217Z,1.70
2022-11-06T05:04:14.130Z,1.80
2022-11-06T05:06:41.751Z,2.65
2022-11-06T05:09:09.250Z,3.05
2022-11-06T05:11:38.433Z,2.45
2022-11-06T05:14:06.167Z,2.70
2022-11-06T05:16:34.338Z,2.10
2022-11-06T05:19:02.041Z,2.55
2022-11-06T05:21:48.673Z,3.17
2022-11-06T05:24:16.455Z,2.53
2022-11-06T05:26:44.111Z,2.70
2022-11-06T05:29:12.845Z,2.50
2022-11-06T05:31:40.625Z,2.67
2022-11-06T05:34:08.099Z,2.38
2022-11-06T05:36:35.678Z,3.03
2022-11-06T05:39:03.487Z,1.88
2022-11-06T05:41:30.977Z,1.90
2022-11-06T05:43:58.616Z,2.58
2022-11-06T05:49:13.478Z,1.52
2022-11-06T05:51:41.120Z,2.17
2022-11-06T05:54:08.643Z,1.88
2022-11-06T05:56:36.223Z,1.95
2022-11-06T05:59:03.943Z,1.85
2022-11-06T06:01:31.561Z,1.95
2022-11-06T06:03:59.360Z,1.40
2022-11-06T06:06:27.016Z,1.52
2022-11-06T06:08:54.454Z,1.70
2022-11-06T06:11:22.080Z,2.28
2022-11-06T06:13:49.562Z,1.85
2022-11-06T06:16:16.997Z,1.58
2022-11-06T06:18:44.473Z,1.85
2022-11-06T06:21:11.984Z,1.90
2022-11-06T06:23:39.360Z,2.05
2022-11-06T06:26:06.849Z,2.00
2022-11-06T06:28:34.476Z,1.95
2022-11-06T06:31:06.526Z,1.70
2022-11-06T06:33:34.734Z,1.40
2022-11-06T06:36:05.913Z,1.20
2022-11-06T06:38:33.548Z,1.52
2022-11-06T06:41:03.281Z,1.10
2022-11-06T06:43:31.136Z,1.83
2022-11-06T06:46:04.103Z,2.03
2022-11-06T06:48:32.155Z,1.70
2022-11-06T06:51:00.847Z,2.50
2022-11-06T06:53:29.302Z,2.13
2022-11-06T06:56:00.442Z,2.25
2022-11-06T06:58:29.290Z,2.38
2022-11-06T07:01:01.133Z,2.80
2022-11-06T07:03:28.823Z,2.42
2022-11-06T07:05:58.816Z,3.42
2022-11-06T07:08:27.429Z,2.78
2022-11-06T07:11:07.013Z,2.70
2022-11-06T07:13:36.413Z,3.50
2022-11-06T07:16:09.858Z,2.60
2022-11-06T07:18:38.408Z,3.67
2022-11-06T07:21:11.759Z,2.70
2022-11-06T07:23:40.093Z,3.58
2022-11-06T07:26:07.613Z,4.10
2022-11-06T07:28:35.534Z,4.00
2022-11-06T07:31:05.989Z,3.65
2022-11-06T07:33:34.357Z,2.92
2022-11-06T07:36:10.824Z,3.47
2022-11-06T07:38:39.974Z,4.07
2022-11-06T07:41:09.796Z,3.08
2022-11-06T07:43:37.751Z,3.97
2022-11-06T07:46:07.737Z,2.85
2022-11-06T07:48:35.500Z,2.75
2022-11-06T07:51:04.986Z,3.25
2022-11-06T07:53:32.956Z,3.05
2022-11-06T07:56:01.197Z,2.67
2022-11-06T07:58:28.999Z,2.85
2022-11-06T08:00:58.645Z,2.40
2022-11-06T08:03:29.819Z,2.95
2022-11-06T08:05:58.582Z,3.65
2022-11-06T08:08:27.396Z,3.13
2022-11-06T08:10:55.166Z,2.92
2022-11-06T08:13:22.961Z,3.22
2022-11-06T08:15:50.427Z,3.08
2022-11-06T08:18:18.138Z,3.53
2022-11-06T08:20:45.639Z,3.22
2022-11-06T08:23:13.866Z,3.20
2022-11-06T08:25:41.604Z,2.88
2022-11-06T08:28:09.665Z,3.05
2022-11-06T08:30:37.383Z,3.55
2022-11-06T08:33:07.912Z,2.63
2022-11-06T08:35:35.717Z,2.88
2022-11-06T08:38:04.019Z,2.47
2022-11-06T08:40:32.952Z,3.33
2022-11-06T08:43:03.947Z,3.20
2022-11-06T08:45:31.683Z,3.10
2022-11-06T08:48:03.692Z,2.67
2022-11-06T08:50:32.334Z,2.60
2022-11-06T08:53:04.025Z,3.30
2022-11-06T08:55:32.037Z,2.00
2022-11-06T08:58:00.226Z,2.83
2022-11-06T09:00:27.977Z,1.95
2022-11-06T09:03:03.789Z,2.95
2022-11-06T09:05:31.380Z,2.40
2022-11-06T09:07:59.766Z,2.05
2022-11-06T09:10:28.323Z,1.55
2022-11-06T09:12:58.759Z,1.60
2022-11-06T09:15:26.920Z,1.23
2022-11-06T09:17:55.299Z,1.10
2022-11-06T09:20:24.759Z,1.25
2022-11-06T09:22:52.866Z,1.38
2022-11-06T09:25:20.542Z,2.30
2022-11-06T09:27:54.463Z,1.33
2022-11-06T09:30:28.571Z,1.92
2022-11-06T09:32:58.543Z,1.67
2022-11-06T09:35:27.461Z,1.90
2022-11-06T09:37:55.036Z,2.05
2022-11-06T09:41:00.135Z,2.40
2022-11-06T09:44:04.094Z,1.52
2022-11-06T09:46:33.905Z,1.75
2022-11-06T09:49:12.166Z,1.67
2022-11-06T09:51:47.785Z,1.90
2022-11-06T09:54:22.940Z,1.58
2022-11-06T09:56:55.137Z,1.60
2022-11-06T09:59:22.949Z,0.88
2022-11-06T10:01:56.897Z,0.75
2022-11-06T10:04:42.321Z,1.48
2022-11-06T10:07:27.727Z,1.00
2022-11-06T10:09:55.781Z,1.40
2022-11-06T10:12:30.925Z,0.93
2022-11-06T10:15:18.713Z,1.13
2022-11-06T10:18:20.181Z,1.20
2022-11-06T10:20:53.438Z,1.13
2022-11-06T10:23:36.664Z,1.48
2022-11-06T10:26:18.314Z,2.22
2022-11-06T10:29:11.970Z,1.02
2022-11-06T10:32:01.347Z,1.38
2022-11-06T10:34:35.135Z,1.15
2022-11-06T10:37:08.691Z,0.80
2022-11-06T10:39:37.149Z,1.48
2022-11-06T10:42:18.961Z,1.20
2022-11-06T10:44:55.770Z,0.90
2022-11-06T10:47:27.782Z,1.00
2022-11-06T10:49:58.072Z,1.13
2022-11-06T10:52:34.438Z,0.95
2022-11-06T10:55:01.761Z,0.90
2022-11-06T10:57:47.426Z,0.80
2022-11-06T11:00:16.407Z,0.70
2022-11-06T11:02:49.527Z,0.95
2022-11-06T11:05:19.992Z,1.33
2022-11-06T11:07:49.523Z,0.93
2022-11-06T11:10:30.684Z,1.13
2022-11-06T11:13:05.550Z,1.10
2022-11-06T11:15:54.300Z,1.10
2022-11-06T11:18:31.244Z,1.42
2022-11-06T11:21:20.229Z,1.23
2022-11-06T11:24:00.542Z,1.38
2022-11-06T11:26:31.354Z,1.65
2022-11-06T11:29:02.568Z,1.92
2022-11-06T11:31:36.360Z,2.25
2022-11-06T11:34:14.909Z,1.90
2022-11-06T11:36:51.352Z,2.13
2022-11-06T11:39:21.847Z,1.90
2022-11-06T11:41:49.660Z,1.90
2022-11-06T11:44:21.016Z,2.67
2022-11-06T11:46:54.764Z,2.00
2022-11-06T11:49:35.105Z,2.08
2022-11-06T11:52:05.245Z,2.33
2022-11-06T11:54:35.324Z,2.30
2022-11-06T11:57:18.063Z,2.53
2022-11-06T11:59:47.934Z,3.22
2022-11-06T12:02:26.342Z,3.00
2022-11-06T12:05:22.750Z,3.03
2022-11-06T12:07:56.980Z,3.88
2022-11-06T12:10:43.601Z,3.00
2022-11-06T12:13:21.394Z,2.97
2022-11-06T12:16:02.072Z,2.42
2022-11-06T12:18:58.569Z,2.55
2022-11-06T12:21:33.543Z,3.08
2022-11-06T12:24:03.796Z,2.35
2022-11-06T12:27:08.199Z,2.83
2022-11-06T12:29:55.931Z,2.97
2022-11-06T12:32:45.643Z,3.83
2022-11-06T12:35:32.612Z,2.75
2022-11-06T12:38:03.560Z,3.05
2022-11-06T12:43:20.815Z,3.47
2022-11-06T12:46:11.892Z,3.38
2022-11-06T12:48:54.573Z,3.60
2022-11-06T12:51:31.168Z,4.18
2022-11-06T12:54:20.933Z,3.38
2022-11-06T12:56:48.430Z,4.22
2022-11-06T12:59:40.787Z,4.55
2022-11-06T13:02:27.519Z,3.25
2022-11-06T13:05:13.913Z,3.55
2022-11-06T13:08:06.930Z,3.03
2022-11-06T13:10:51.872Z,3.03
2022-11-06T13:13:28.081Z,2.92
2022-11-06T13:16:22.387Z,3.38
2022-11-06T13:19:15.229Z,3.97
2022-11-06T13:21:52.160Z,3.50
2022-11-06T13:24:22.741Z,3.90
2022-11-06T13:26:55.952Z,4.07
2022-11-06T13:29:25.696Z,3.55
2022-11-06T13:32:04.422Z,3.83
2022-11-06T13:34:38.381Z,3.70
2022-11-06T13:37:30.919Z,3.75
2022-11-06T13:40:36.254Z,4.05
2022-11-06T13:43:19.508Z,3.00
2022-11-06T13:46:31.243Z,3.33
2022-11-06T13:49:28.889Z,2.00
2022-11-06T13:52:02.460Z,3.42
2022-11-06T13:54:38.960Z,2.17
2022-11-06T13:57:30.981Z,2.30
2022-11-06T14:00:03.289Z,2.40
2022-11-06T14:03:09.749Z,2.10
2022-11-06T14:06:10.057Z,2.38
2022-11-06T14:08:49.432Z,2.75
2022-11-06T14:11:26.244Z,2.05
2022-11-06T14:14:20.042Z,1.60
2022-11-06T14:17:10.230Z,2.28
2022-11-06T14:19:38.318Z,2.40
2022-11-06T14:22:09.090Z,1.77
2022-11-06T14:24:41.523Z,1.50
2022-11-06T14:27:23.077Z,1.73
2022-11-06T14:29:56.520Z,1.20
2022-11-06T14:32:24.168Z,1.48
2022-11-06T14:34:51.657Z,1.50
2022-11-06T14:37:19.277Z,2.25
2022-11-06T14:39:56.165Z,1.50
2022-11-06T14:42:27.073Z,1.45
2022-11-06T14:44:57.518Z,1.70
2022-11-06T14:47:24.951Z,1.30
2022-11-06T14:49:54.960Z,1.30
2022-11-06T14:52:24.952Z,1.10
2022-11-06T14:55:05.528Z,1.00
2022-11-06T14:57:48.482Z,0.85
2022-11-06T15:00:55.435Z,1.25
2022-11-06T15:03:44.454Z,1.00
2022-11-06T15:06:17.883Z,0.60
2022-11-06T15:08:45.310Z,0.80
2022-11-06T15:11:31.869Z,1.05
2022-11-06T15:14:02.223Z,1.30
2022-11-06T15:16:50.801Z,1.88
2022-11-06T15:19:30.034Z,4.07
2022-11-06T15:22:07.194Z,1.35
2022-11-06T15:24:39.768Z,3.20
2022-11-06T15:27:18.678Z,1.90
2022-11-06T15:29:51.802Z,3.30
2022-11-06T15:32:30.085Z,1.55
2022-11-06T15:35:06.266Z,3.30
2022-11-06T15:37:50.606Z,1.77
2022-11-06T15:40:26.990Z,6.15
2022-11-06T15:42:58.299Z,1.80
2022-11-06T15:45:28.019Z,1.02
2022-11-06T15:48:01.112Z,2.95
2022-11-06T15:50:36.488Z,1.52
2022-11-06T15:53:31.024Z,1.20
2022-11-06T15:56:05.885Z,4.53
2022-11-06T15:58:35.523Z,1.80
2022-11-06T16:01:05.558Z,1.30
2022-11-06T16:03:54.704Z,0.83
2022-11-06T16:06:22.474Z,0.80
2022-11-06T16:08:51.238Z,0.82
2022-11-06T16:11:20.515Z,1.20
2022-11-06T16:13:48.473Z,1.38
2022-11-06T16:16:32.753Z,1.30
2022-11-06T16:19:02.324Z,1.27
2022-11-06T16:21:33.272Z,1.50
2022-11-06T16:24:03.197Z,1.27
2022-11-06T16:26:35.473Z,1.20
2022-11-06T16:29:30.519Z,1.67
2022-11-06T16:32:09.633Z,1.50
2022-11-06T16:34:44.031Z,1.40
2022-11-06T16:37:17.794Z,1.60
2022-11-06T16:39:53.483Z,1.55
2022-11-06T16:42:33.256Z,1.60
2022-11-06T16:45:22.614Z,1.40
2022-11-06T16:48:23.477Z,1.52
2022-11-06T16:50:57.128Z,1.83
2022-11-06T16:53:27.924Z,1.50
2022-11-06T16:56:01.656Z,2.08
2022-11-06T16:58:32.461Z,2.80
2022-11-06T17:03:45.964Z,2.22
2022-11-06T17:06:22.227Z,2.00
2022-11-06T17:09:09.116Z,3.38
2022-11-06T17:11:38.767Z,2.42
2022-11-06T17:14:17.870Z,1.80
2022-11-06T17:16:51.749Z,2.00
2022-11-06T17:19:20.781Z,2.03
2022-11-06T17:21:49.675Z,2.00
2022-11-06T17:24:36.102Z,2.70
2022-11-06T17:27:05.418Z,3.40
2022-11-06T17:29:36.408Z,2.35
2022-11-06T17:32:05.157Z,2.70
2022-11-06T17:34:32.633Z,2.15
2022-11-06T17:37:00.157Z,2.80
2022-11-06T17:39:27.652Z,2.13
2022-11-06T17:41:55.401Z,2.20
2022-11-06T17:44:23.661Z,2.70
2022-11-06T17:46:51.517Z,2.35
2022-11-06T17:49:19.126Z,2.85
2022-11-06T17:51:50.593Z,2.50
2022-11-06T17:54:20.763Z,2.58
2022-11-06T17:56:51.287Z,2.95
2022-11-06T17:59:19.264Z,2.10
2022-11-06T18:01:50.617Z,2.35
2022-11-06T18:04:23.006Z,2.67
2022-11-06T18:06:52.290Z,2.28
2022-11-06T18:09:21.123Z,2.40
2022-11-06T18:11:51.003Z,2.85
2022-11-06T18:14:19.573Z,2.95
2022-11-06T18:16:47.788Z,2.70
2022-11-06T18:19:18.498Z,2.58
2022-11-06T18:21:46.529Z,2.95
2022-11-06T18:24:14.180Z,3.17
2022-11-06T18:26:41.880Z,2.90
2022-11-06T18:29:11.697Z,3.42
2022-11-06T18:31:39.691Z,2.25
2022-11-06T18:34:08.069Z,2.80
2022-11-06T18:36:36.907Z,2.53
2022-11-06T18:39:05.888Z,3.08
2022-11-06T18:41:34.531Z,2.83
2022-11-06T18:44:02.254Z,3.00
2022-11-06T18:46:30.236Z,2.50
2022-11-06T18:48:58.588Z,3.22
2022-11-06T18:51:35.561Z,3.75
2022-11-06T18:54:09.655Z,3.55
2022-11-06T18:56:38.733Z,3.70
2022-11-06T18:59:08.463Z,5.18
2022-11-06T19:01:36.580Z,4.78
2022-11-06T19:04:04.816Z,5.65
2022-11-06T19:06:33.017Z,10.55
2022-11-06T19:09:00.601Z,14.98
2022-11-06T19:11:28.163Z,6.63
2022-11-06T19:13:55.905Z,5.70
2022-11-06T19:16:23.480Z,4.78
2022-11-06T19:21:30.596Z,6.20
2022-11-06T19:24:05.646Z,6.53
2022-11-06T19:26:36.171Z,9.52
2022-11-06T19:29:07.476Z,4.50
2022-11-06T19:31:37.365Z,8.40
2022-11-06T19:34:07.028Z,5.35
2022-11-06T19:36:35.145Z,4.30
2022-11-06T19:39:03.499Z,4.07
2022-11-06T19:41:31.060Z,3.30
2022-11-06T19:43:58.897Z,3.72
2022-11-06T19:46:31.134Z,3.40
2022-11-06T19:49:07.473Z,4.45
2022-11-06T19:51:37.604Z,3.55
2022-11-06T19:54:09.603Z,4.05
2022-11-06T19:57:29.339Z,4.22
2022-11-06T19:59:25.518Z,4.00
2022-11-06T20:01:53.287Z,4.20
2022-11-06T20:04:20.909Z,5.50
2022-11-06T20:06:48.457Z,3.83
2022-11-06T20:09:16.264Z,5.30
2022-11-06T20:11:44.558Z,4.43
2022-11-06T20:14:12.242Z,3.90
2022-11-06T20:16:40.770Z,4.15
2022-11-06T20:19:08.687Z,4.75
2022-11-06T20:21:36.152Z,3.72
2022-11-06T20:24:03.887Z,6.20
2022-11-06T20:26:31.363Z,4.63
2022-11-06T20:28:58.847Z,3.80
2022-11-06T20:31:27.172Z,5.32
2022-11-06T20:33:54.858Z,3.97
2022-11-06T20:36:24.980Z,5.10
2022-11-06T20:38:55.470Z,4.83
2022-11-06T20:41:23.604Z,4.20
2022-11-06T20:43:53.070Z,4.95
2022-11-06T20:46:22.203Z,4.75
2022-11-06T20:48:50.110Z,5.97
2022-11-06T20:51:20.945Z,4.50
2022-11-06T20:53:48.608Z,4.10
2022-11-06T20:56:18.796Z,4.82
2022-11-06T20:58:46.977Z,4.13
2022-11-06T21:01:18.333Z,4.85
2022-11-06T21:03:47.628Z,3.70
2022-11-06T21:06:16.108Z,4.15
2022-11-06T21:08:44.803Z,4.03
2022-11-06T21:11:16.711Z,3.70
2022-11-06T21:13:46.131Z,4.13
2022-11-06T21:16:24.717Z,4.47
2022-11-06T21:18:52.992Z,3.33
2022-11-06T21:21:26.444Z,3.85
2022-11-06T21:23:55.080Z,3.00
2022-11-06T21:26:26.219Z,2.85
2022-11-06T21:28:55.740Z,3.15
2022-11-06T21:31:26.299Z,3.30
2022-11-06T21:33:56.195Z,4.53
2022-11-06T21:36:26.378Z,3.03
2022-11-06T21:38:54.987Z,4.20
2022-11-06T21:41:25.568Z,2.53
2022-11-06T21:43:53.039Z,3.20
2022-11-06T21:46:21.094Z,2.80
2022-11-06T21:48:49.918Z,3.35
2022-11-06T21:51:26.886Z,2.60
2022-11-06T21:54:13.900Z,2.75
2022-11-06T21:56:42.652Z,3.22
2022-11-06T21:59:13.302Z,3.30
2022-11-06T22:01:41.986Z,2.97
2022-11-06T22:04:10.793Z,3.78
2022-11-06T22:06:41.276Z,3.05
2022-11-06T22:09:10.120Z,3.65
2022-11-06T22:11:41.085Z,4.07
2022-11-06T22:14:13.507Z,4.25
2022-11-06T22:16:42.898Z,3.75
2022-11-06T22:19:11.724Z,3.20
2022-11-06T22:21:40.365Z,4.57
2022-11-06T22:24:10.532Z,3.90
2022-11-06T22:26:38.194Z,4.93
2022-11-06T22:29:11.510Z,3.53
2022-11-06T22:31:39.173Z,4.60
2022-11-06T22:34:06.852Z,4.47
2022-11-06T22:36:36.895Z,5.07
2022-11-06T22:39:08.966Z,4.47
2022-11-06T22:41:37.323Z,4.75
2022-11-06T22:44:05.900Z,4.30
2022-11-06T22:46:34.025Z,4.28
2022-11-06T22:49:01.942Z,4.07
2022-11-06T22:51:31.205Z,3.83
2022-11-06T22:53:59.986Z,4.40
2022-11-06T22:56:29.030Z,4.15
2022-11-06T22:59:00.279Z,6.38
2022-11-06T23:01:29.709Z,4.93
2022-11-06T23:04:01.341Z,5.43
2022-11-06T23:06:29.729Z,6.32
2022-11-06T23:08:57.871Z,5.38
2022-11-06T23:11:27.507Z,6.20
2022-11-06T23:13:55.268Z,5.75
2022-11-06T23:16:44.009Z,6.20
2022-11-06T23:19:14.656Z,4.85
2022-11-06T23:21:43.546Z,5.88
2022-11-06T23:24:12.022Z,4.07
2022-11-06T23:26:41.492Z,4.97
2022-11-06T23:29:09.447Z,5.45
2022-11-06T23:31:37.194Z,5.70
2022-11-06T23:34:04.967Z,4.85
2022-11-06T23:36:32.487Z,4.80
2022-11-06T23:39:00.013Z,4.88
2022-11-06T23:41:46.193Z,5.47
2022-11-06T23:44:33.526Z,4.80
2022-11-06T23:47:01.440Z,5.72
2022-11-06T23:49:29.282Z,5.32
2022-11-06T23:51:57.048Z,5.90
2022-11-06T23:54:25.506Z,5.68
2022-11-06T23:56:53.242Z,5.32
2022-11-06T23:59:20.803Z,6.18
